createdAt,value
2018-12-20T00:00:43.143Z,7.50
2018-12-20T00:03:13.946Z,7.50
2018-12-20T00:05:42.281Z,7.50
2018-12-20T00:08:11.643Z,7.50
2018-12-20T00:10:40.003Z,7.50
2018-12-20T00:13:08.330Z,7.50
2018-12-20T00:15:36.594Z,7.60
2018-12-20T00:18:04.892Z,7.60
2018-12-20T00:20:33.220Z,7.60
2018-12-20T00:23:01.583Z,7.60
2018-12-20T00:25:29.910Z,7.60
2018-12-20T00:27:58.357Z,7.60
2018-12-20T00:30:26.595Z,7.60
2018-12-20T00:32:54.907Z,7.60
2018-12-20T00:35:23.254Z,7.60
2018-12-20T00:37:51.595Z,7.60
2018-12-20T00:40:19.986Z,7.50
2018-12-20T00:42:48.363Z,7.60
2018-12-20T00:45:16.661Z,7.60
2018-12-20T00:47:47.404Z,7.70
2018-12-20T00:50:15.674Z,7.70
2018-12-20T00:52:44.117Z,7.70
2018-12-20T00:55:12.515Z,7.70
2018-12-20T00:57:40.798Z,7.70
2018-12-20T01:00:09.497Z,7.70
2018-12-20T01:02:37.871Z,7.70
2018-12-20T01:05:06.736Z,7.80
2018-12-20T01:07:35.022Z,7.90
2018-12-20T01:10:04.114Z,7.80
2018-12-20T01:12:32.508Z,7.70
2018-12-20T01:15:01.148Z,7.60
2018-12-20T01:17:31.468Z,7.60
2018-12-20T01:19:59.714Z,7.50
2018-12-20T01:22:28.197Z,7.60
2018-12-20T01:24:56.726Z,7.60
2018-12-20T01:27:26.182Z,7.50
2018-12-20T01:29:54.537Z,7.50
2018-12-20T01:32:23.054Z,7.50
2018-12-20T01:34:51.339Z,7.50
2018-12-20T01:37:19.744Z,7.50
2018-12-20T01:39:48.116Z,7.50
2018-12-20T01:42:16.448Z,7.60
2018-12-20T01:44:44.960Z,7.60
2018-12-20T01:47:13.285Z,7.60
2018-12-20T01:49:41.594Z,7.60
2018-12-20T01:52:09.854Z,7.60
2018-12-20T01:54:39.379Z,7.60
2018-12-20T01:57:07.628Z,7.60
2018-12-20T01:59:36.151Z,7.50
2018-12-20T02:02:04.627Z,7.50
2018-12-20T02:04:34.341Z,7.50
2018-12-20T02:07:02.674Z,7.50
2018-12-20T02:09:33.279Z,7.50
2018-12-20T02:12:01.781Z,7.50
2018-12-20T02:14:30.466Z,7.50
2018-12-20T02:16:58.863Z,7.50
2018-12-20T02:19:27.701Z,7.50
2018-12-20T02:21:57.137Z,7.50
2018-12-20T02:24:25.485Z,7.50
2018-12-20T02:26:53.869Z,7.50
2018-12-20T02:29:22.205Z,7.50
2018-12-20T02:31:50.551Z,7.50
2018-12-20T02:34:18.928Z,7.50
2018-12-20T02:36:47.288Z,7.50
2018-12-20T02:39:15.767Z,7.60
2018-12-20T02:41:45.415Z,7.50
2018-12-20T02:44:13.823Z,7.60
2018-12-20T02:46:42.338Z,7.60
2018-12-20T02:49:10.594Z,7.50
2018-12-20T02:51:39.180Z,7.50
2018-12-20T02:54:08.995Z,7.60
2018-12-20T02:56:37.372Z,7.60
2018-12-20T02:59:05.710Z,7.50
2018-12-20T03:01:34.629Z,7.50
2018-12-20T03:04:02.951Z,7.50
2018-12-20T03:06:31.803Z,7.50
2018-12-20T03:09:00.411Z,7.40
2018-12-20T03:11:29.001Z,7.50
2018-12-20T03:13:57.455Z,7.50
2018-12-20T03:16:25.799Z,7.50
2018-12-20T03:18:54.582Z,7.50
2018-12-20T03:21:23.035Z,7.50
2018-12-20T03:23:51.442Z,7.50
2018-12-20T03:26:19.792Z,7.50
2018-12-20T03:28:48.270Z,7.50
2018-12-20T03:31:17.039Z,7.50
2018-12-20T03:33:45.829Z,7.50
2018-12-20T03:36:14.258Z,7.50
2018-12-20T03:38:42.834Z,7.60
2018-12-20T03:41:11.551Z,7.60
2018-12-20T03:43:40.034Z,7.60
2018-12-20T03:46:08.902Z,7.60
2018-12-20T03:48:37.430Z,7.60
2018-12-20T03:51:05.950Z,7.60
2018-12-20T03:53:34.588Z,7.60
2018-12-20T03:56:02.904Z,7.60
2018-12-20T03:58:31.191Z,7.60
2018-12-20T04:01:00.019Z,7.60
2018-12-20T04:03:28.778Z,7.60
2018-12-20T04:05:57.373Z,7.60
2018-12-20T04:08:26.438Z,7.60
2018-12-20T04:10:54.914Z,7.60
2018-12-20T04:13:23.188Z,7.50
2018-12-20T04:15:51.703Z,7.60
2018-12-20T04:18:20.097Z,7.50
2018-12-20T04:20:48.392Z,7.50
2018-12-20T04:23:16.764Z,7.50
2018-12-20T04:25:45.726Z,7.50
2018-12-20T04:28:14.360Z,7.50
2018-12-20T04:30:42.882Z,7.50
2018-12-20T04:33:11.286Z,7.50
2018-12-20T04:35:39.733Z,7.50
2018-12-20T04:38:08.122Z,7.50
2018-12-20T04:40:36.421Z,7.50
2018-12-20T04:43:04.919Z,7.50
2018-12-20T04:45:33.508Z,7.60
2018-12-20T04:48:01.783Z,7.60
2018-12-20T04:50:30.159Z,7.60
2018-12-20T04:52:59.102Z,7.60
2018-12-20T04:55:27.635Z,7.60
2018-12-20T04:57:56.017Z,7.60
2018-12-20T05:00:24.379Z,7.60
2018-12-20T05:02:52.654Z,7.60
2018-12-20T05:05:21.198Z,7.60
2018-12-20T05:07:49.893Z,7.50
2018-12-20T05:10:19.841Z,7.50
2018-12-20T05:12:48.577Z,7.40
2018-12-20T05:15:17.381Z,7.30
2018-12-20T05:17:46.005Z,7.30
2018-12-20T05:20:14.616Z,7.20
2018-12-20T05:22:43.557Z,7.20
2018-12-20T05:25:11.906Z,7.10
2018-12-20T05:27:40.167Z,7.00
2018-12-20T05:30:08.758Z,7.00
2018-12-20T05:32:37.003Z,7.00
2018-12-20T05:35:05.403Z,7.00
2018-12-20T05:37:34.092Z,7.00
2018-12-20T05:40:03.022Z,7.00
2018-12-20T05:42:31.892Z,7.00
2018-12-20T05:45:00.509Z,7.00
2018-12-20T05:47:28.852Z,7.00
2018-12-20T05:49:57.132Z,7.10
2018-12-20T05:52:25.493Z,7.10
2018-12-20T05:54:53.891Z,7.10
2018-12-20T05:57:22.171Z,7.20
2018-12-20T05:59:51.136Z,7.30
2018-12-20T06:02:20.691Z,7.40
2018-12-20T06:04:49.072Z,7.50
2018-12-20T06:07:17.351Z,7.50
2018-12-20T06:09:45.606Z,7.50
2018-12-20T06:12:14.261Z,7.50
2018-12-20T06:14:43.113Z,7.50
2018-12-20T06:17:11.366Z,7.50
2018-12-20T06:19:39.905Z,7.40
2018-12-20T06:22:08.403Z,7.40
2018-12-20T06:24:36.752Z,7.30
2018-12-20T06:27:05.007Z,7.30
2018-12-20T06:29:33.360Z,7.30
2018-12-20T06:32:01.607Z,7.30
2018-12-20T06:34:29.991Z,7.20
2018-12-20T06:36:58.243Z,7.20
2018-12-20T06:39:26.491Z,7.10
2018-12-20T06:41:54.742Z,7.20
2018-12-20T06:44:23.509Z,7.10
2018-12-20T06:46:51.739Z,7.20
2018-12-20T06:49:20.111Z,7.30
2018-12-20T06:51:48.392Z,7.30
2018-12-20T06:54:16.647Z,7.40
2018-12-20T06:56:44.906Z,7.40
2018-12-20T06:59:13.314Z,7.40
2018-12-20T07:01:41.562Z,7.40
2018-12-20T07:04:09.929Z,7.50
2018-12-20T07:06:38.380Z,7.50
2018-12-20T07:09:07.613Z,7.60
2018-12-20T07:11:35.862Z,7.60
2018-12-20T07:14:04.554Z,7.60
2018-12-20T07:16:32.815Z,7.60
2018-12-20T07:19:01.063Z,7.60
2018-12-20T07:21:29.354Z,7.60
2018-12-20T07:23:57.619Z,7.70
2018-12-20T07:26:25.870Z,7.70
2018-12-20T07:28:54.234Z,7.80
2018-12-20T07:31:22.831Z,7.80
2018-12-20T07:33:51.090Z,7.90
2018-12-20T07:36:19.378Z,8.10
2018-12-20T07:38:47.712Z,8.10
2018-12-20T07:41:15.976Z,8.10
2018-12-20T07:43:44.250Z,8.20
2018-12-20T07:46:19.563Z,8.20
2018-12-20T07:48:47.989Z,8.20
2018-12-20T07:51:19.018Z,8.30
2018-12-20T07:53:47.267Z,8.20
2018-12-20T07:56:15.571Z,8.20
2018-12-20T07:58:45.650Z,8.20
2018-12-20T08:01:16.269Z,8.10
2018-12-20T08:03:44.576Z,8.10
2018-12-20T08:06:13.456Z,8.30
2018-12-20T08:08:42.274Z,8.30
2018-12-20T08:11:10.814Z,8.50
2018-12-20T08:13:39.068Z,8.50
2018-12-20T08:16:09.771Z,8.60
2018-12-20T08:18:38.850Z,8.70
2018-12-20T08:21:07.126Z,8.80
2018-12-20T08:23:35.400Z,8.70
2018-12-20T08:26:04.600Z,8.70
2018-12-20T08:28:32.897Z,8.80
2018-12-20T08:31:01.155Z,8.80
2018-12-20T08:33:31.157Z,8.70
2018-12-20T08:35:59.488Z,8.80
2018-12-20T08:38:27.826Z,8.70
2018-12-20T08:40:56.123Z,8.80
2018-12-20T08:43:24.371Z,8.60
2018-12-20T08:45:52.630Z,8.50
2018-12-20T08:48:20.994Z,8.50
2018-12-20T08:50:49.593Z,8.50
2018-12-20T08:53:18.844Z,8.40
2018-12-20T08:55:47.482Z,8.50
2018-12-20T08:58:15.895Z,8.70
2018-12-20T09:00:44.155Z,8.80
2018-12-20T09:03:12.935Z,8.80
2018-12-20T09:05:41.179Z,8.90
2018-12-20T09:08:09.570Z,9.10
2018-12-20T09:10:39.522Z,9.20
2018-12-20T09:13:09.724Z,9.40
2018-12-20T09:15:38.023Z,9.60
2018-12-20T09:18:06.628Z,9.70
2018-12-20T09:20:34.879Z,9.70
2018-12-20T09:23:03.215Z,9.50
2018-12-20T09:25:31.512Z,9.50
2018-12-20T09:27:59.762Z,9.50
2018-12-20T09:30:30.706Z,9.60
2018-12-20T09:32:58.288Z,9.70
2018-12-20T09:35:26.551Z,9.70
2018-12-20T09:37:54.827Z,9.70
2018-12-20T09:40:23.835Z,9.90
2018-12-20T09:42:52.090Z,9.70
2018-12-20T09:45:20.427Z,9.50
2018-12-20T09:47:55.860Z,9.50
2018-12-20T09:50:24.371Z,9.70
2018-12-20T09:52:53.822Z,9.90
2018-12-20T09:55:22.111Z,9.90
2018-12-20T09:57:50.374Z,10.00
2018-12-20T10:00:18.715Z,10.00
2018-12-20T10:02:47.232Z,9.90
2018-12-20T10:05:15.487Z,9.80
2018-12-20T10:07:43.873Z,10.00
2018-12-20T10:10:12.156Z,10.00
2018-12-20T10:12:40.415Z,10.10
2018-12-20T10:15:09.033Z,10.10
2018-12-20T10:17:37.314Z,10.10
2018-12-20T10:20:07.706Z,10.20
2018-12-20T10:22:35.983Z,10.30
2018-12-20T10:25:05.115Z,10.30
2018-12-20T10:27:33.376Z,10.40
2018-12-20T10:30:01.642Z,10.40
2018-12-20T10:32:30.055Z,10.30
2018-12-20T10:34:58.302Z,10.30
2018-12-20T10:37:26.566Z,10.30
2018-12-20T10:39:54.854Z,10.20
2018-12-20T10:42:23.118Z,10.30
2018-12-20T10:44:51.374Z,10.30
2018-12-20T10:47:28.893Z,10.40
2018-12-20T10:49:53.924Z,10.50
2018-12-20T10:52:22.193Z,10.40
2018-12-20T10:54:50.713Z,10.40
2018-12-20T10:57:19.054Z,10.30
2018-12-20T10:59:47.465Z,10.50
2018-12-20T11:02:21.540Z,10.50
2018-12-20T11:04:55.475Z,10.30
2018-12-20T11:07:29.655Z,10.30
2018-12-20T11:10:04.092Z,10.40
2018-12-20T11:12:38.490Z,10.40
2018-12-20T11:15:07.382Z,10.40
2018-12-20T11:17:37.475Z,10.20
2018-12-20T11:20:06.642Z,10.30
2018-12-20T11:22:34.991Z,10.20
2018-12-20T11:25:04.053Z,10.20
2018-12-20T11:27:32.693Z,10.30
2018-12-20T11:30:00.972Z,10.10
2018-12-20T11:32:29.319Z,10.20
2018-12-20T11:34:57.609Z,10.10
2018-12-20T11:37:25.870Z,10.10
2018-12-20T11:39:59.395Z,10.10
2018-12-20T11:42:24.497Z,10.10
2018-12-20T11:44:52.735Z,10.20
2018-12-20T11:47:27.408Z,10.20
2018-12-20T11:49:55.679Z,10.20
2018-12-20T11:52:24.033Z,10.20
2018-12-20T11:54:54.204Z,10.30
2018-12-20T11:57:22.603Z,10.30
2018-12-20T11:59:50.850Z,10.40
2018-12-20T12:02:24.459Z,10.10
2018-12-20T12:04:49.403Z,10.10
2018-12-20T12:07:17.686Z,10.20
2018-12-20T12:09:46.250Z,10.20
2018-12-20T12:12:14.542Z,10.30
2018-12-20T12:14:43.063Z,10.50
2018-12-20T12:17:11.437Z,10.60
2018-12-20T12:19:39.758Z,10.70
2018-12-20T12:22:08.502Z,10.70
2018-12-20T12:24:38.115Z,10.70
2018-12-20T12:27:06.507Z,10.60
2018-12-20T12:29:35.177Z,10.60
2018-12-20T12:32:03.760Z,10.40
2018-12-20T12:34:32.037Z,10.40
2018-12-20T12:37:00.547Z,10.50
2018-12-20T12:39:28.829Z,10.50
2018-12-20T12:41:57.086Z,10.50
2018-12-20T12:44:25.405Z,10.60
2018-12-20T12:46:53.834Z,10.60
2018-12-20T12:49:24.078Z,10.60
2018-12-20T12:51:53.225Z,10.70
2018-12-20T12:54:22.551Z,10.70
2018-12-20T12:56:50.883Z,10.70
2018-12-20T12:59:19.145Z,10.70
2018-12-20T13:01:47.435Z,10.70
2018-12-20T13:04:15.706Z,10.50
2018-12-20T13:06:44.048Z,10.50
2018-12-20T13:09:12.606Z,10.50
2018-12-20T13:11:40.834Z,10.50
2018-12-20T13:14:09.102Z,10.40
2018-12-20T13:16:39.001Z,10.40
2018-12-20T13:19:07.263Z,10.30
2018-12-20T13:21:35.635Z,10.20
2018-12-20T13:24:04.319Z,9.90
2018-12-20T13:26:32.683Z,9.90
2018-12-20T13:29:01.311Z,9.90
2018-12-20T13:31:29.919Z,9.70
2018-12-20T13:33:58.179Z,9.70
2018-12-20T13:36:26.523Z,9.60
2018-12-20T13:38:54.970Z,9.40
2018-12-20T13:41:23.516Z,9.50
2018-12-20T13:43:51.754Z,9.50
2018-12-20T13:46:20.031Z,9.50
2018-12-20T13:48:48.291Z,9.50
2018-12-20T13:51:16.542Z,9.50
2018-12-20T13:53:44.828Z,9.50
2018-12-20T13:56:13.172Z,9.60
2018-12-20T13:58:41.419Z,9.70
2018-12-20T14:01:09.955Z,9.70
2018-12-20T14:03:38.197Z,9.60
2018-12-20T14:06:06.451Z,9.60
2018-12-20T14:08:34.806Z,9.60
2018-12-20T14:11:03.120Z,9.60
2018-12-20T14:13:31.376Z,9.50
2018-12-20T14:16:00.006Z,9.40
2018-12-20T14:18:31.116Z,9.20
2018-12-20T14:20:58.510Z,9.30
2018-12-20T14:23:27.275Z,9.20
2018-12-20T14:25:55.555Z,9.30
2018-12-20T14:28:23.846Z,9.40
2018-12-20T14:30:52.139Z,9.60
2018-12-20T14:33:20.399Z,9.70
2018-12-20T14:35:48.655Z,9.80
2018-12-20T14:38:16.937Z,9.80
2018-12-20T14:40:45.182Z,9.70
2018-12-20T14:43:13.434Z,9.80
2018-12-20T14:45:41.990Z,9.90
2018-12-20T14:48:12.342Z,9.90
2018-12-20T14:50:40.607Z,9.70
2018-12-20T14:53:08.901Z,9.70
2018-12-20T14:55:37.158Z,9.70
2018-12-20T14:58:05.425Z,9.70
2018-12-20T15:00:33.699Z,9.60
2018-12-20T15:03:01.957Z,9.70
2018-12-20T15:05:30.206Z,9.70
2018-12-20T15:07:58.570Z,9.70
2018-12-20T15:10:26.826Z,9.70
2018-12-20T15:12:55.085Z,9.60
2018-12-20T15:15:23.363Z,9.60
2018-12-20T15:17:51.608Z,9.60
2018-12-20T15:20:19.867Z,9.50
2018-12-20T15:22:48.354Z,9.50
2018-12-20T15:25:16.610Z,9.50
2018-12-20T15:27:45.083Z,9.50
2018-12-20T15:30:13.639Z,9.50
2018-12-20T15:32:41.895Z,9.40
2018-12-20T15:35:10.159Z,9.40
2018-12-20T15:37:38.447Z,9.40
2018-12-20T15:40:08.027Z,9.40
2018-12-20T15:42:36.373Z,9.40
2018-12-20T15:45:06.306Z,9.40
2018-12-20T15:47:34.593Z,9.30
2018-12-20T15:50:03.618Z,9.30
2018-12-20T15:52:31.997Z,9.40
2018-12-20T15:55:00.435Z,9.40
2018-12-20T15:57:28.696Z,9.40
2018-12-20T15:59:56.959Z,9.30
2018-12-20T16:02:25.422Z,9.20
2018-12-20T16:04:53.716Z,9.20
2018-12-20T16:07:22.070Z,9.10
2018-12-20T16:09:50.787Z,9.20
2018-12-20T16:12:19.525Z,9.30
2018-12-20T16:14:48.071Z,9.40
2018-12-20T16:17:16.359Z,9.40
2018-12-20T16:19:44.701Z,9.50
2018-12-20T16:22:13.272Z,9.60
2018-12-20T16:24:41.571Z,9.50
2018-12-20T16:27:11.282Z,9.50
2018-12-20T16:29:40.001Z,9.60
2018-12-20T16:32:08.446Z,9.50
2018-12-20T16:34:36.722Z,9.50
2018-12-20T16:37:05.593Z,9.50
2018-12-20T16:39:36.056Z,9.40
2018-12-20T16:42:04.425Z,9.40
2018-12-20T16:44:32.732Z,9.40
2018-12-20T16:47:01.198Z,9.40
2018-12-20T16:49:31.478Z,9.30
2018-12-20T16:51:59.815Z,9.10
2018-12-20T16:54:29.074Z,9.10
2018-12-20T16:56:57.645Z,9.30
2018-12-20T16:59:26.535Z,9.30
2018-12-20T17:01:55.847Z,9.30
2018-12-20T17:04:25.123Z,9.30
2018-12-20T17:06:53.447Z,9.40
2018-12-20T17:09:21.718Z,9.40
2018-12-20T17:11:50.188Z,9.30
2018-12-20T17:14:19.676Z,9.30
2018-12-20T17:16:49.099Z,9.30
2018-12-20T17:19:22.136Z,9.40
2018-12-20T17:21:49.424Z,9.30
2018-12-20T17:24:18.831Z,9.40
2018-12-20T17:26:49.066Z,9.40
2018-12-20T17:29:17.901Z,9.50
2018-12-20T17:31:47.551Z,9.50
2018-12-20T17:34:16.967Z,9.60
2018-12-20T17:36:45.400Z,9.60
2018-12-20T17:39:13.815Z,9.60
2018-12-20T17:41:42.070Z,9.50
2018-12-20T17:44:10.596Z,9.50
2018-12-20T17:46:38.958Z,9.60
2018-12-20T17:49:07.567Z,9.70
2018-12-20T17:51:35.969Z,9.50
2018-12-20T17:54:04.362Z,9.50
2018-12-20T17:56:33.801Z,9.50
2018-12-20T17:59:03.559Z,9.50
2018-12-20T18:01:31.906Z,9.50
2018-12-20T18:04:00.283Z,9.40
2018-12-20T18:06:28.770Z,9.40
2018-12-20T18:08:57.986Z,9.50
2018-12-20T18:11:26.346Z,9.40
2018-12-20T18:13:55.057Z,9.40
2018-12-20T18:16:23.424Z,9.50
2018-12-20T18:18:51.674Z,9.50
2018-12-20T18:21:21.133Z,9.50
2018-12-20T18:23:50.276Z,9.40
2018-12-20T18:26:18.590Z,9.40
2018-12-20T18:28:47.476Z,9.30
2018-12-20T18:31:16.162Z,9.20
2018-12-20T18:33:44.526Z,9.30
2018-12-20T18:36:13.022Z,9.20
2018-12-20T18:38:41.448Z,9.10
2018-12-20T18:41:09.735Z,9.30
2018-12-20T18:43:38.215Z,9.20
2018-12-20T18:46:07.654Z,9.10
2018-12-20T18:48:40.123Z,9.30
2018-12-20T18:51:08.402Z,9.30
2018-12-20T18:53:36.798Z,9.10
2018-12-20T18:56:05.259Z,9.00
2018-12-20T18:58:33.560Z,9.00
2018-12-20T19:01:01.919Z,9.00
2018-12-20T19:03:30.364Z,9.00
2018-12-20T19:05:59.599Z,9.10
2018-12-20T19:08:27.861Z,9.00
2018-12-20T19:10:57.394Z,8.90
2018-12-20T19:13:25.798Z,8.70
2018-12-20T19:15:55.315Z,8.70
2018-12-20T19:18:23.682Z,8.70
2018-12-20T19:20:56.015Z,8.70
2018-12-20T19:23:24.435Z,8.80
2018-12-20T19:25:54.002Z,8.80
2018-12-20T19:28:22.691Z,8.70
2018-12-20T19:30:51.446Z,8.70
2018-12-20T19:33:19.767Z,8.60
2018-12-20T19:35:51.832Z,8.60
2018-12-20T19:38:26.958Z,8.70
2018-12-20T19:40:55.404Z,8.70
2018-12-20T19:43:24.652Z,8.70
2018-12-20T19:45:53.151Z,8.70
2018-12-20T19:48:21.587Z,8.70
2018-12-20T19:50:49.826Z,8.60
2018-12-20T19:53:18.354Z,8.60
2018-12-20T19:55:47.042Z,8.50
2018-12-20T19:58:15.293Z,8.50
2018-12-20T20:00:43.630Z,8.40
2018-12-20T20:03:12.069Z,8.40
2018-12-20T20:05:40.447Z,8.30
2018-12-20T20:08:09.467Z,8.40
2018-12-20T20:10:37.734Z,8.50
2018-12-20T20:13:18.855Z,8.50
2018-12-20T20:15:41.259Z,8.50
2018-12-20T20:18:12.735Z,8.50
2018-12-20T20:20:46.933Z,8.60
2018-12-20T20:23:16.684Z,8.80
2018-12-20T20:25:44.996Z,8.70
2018-12-20T20:28:13.294Z,8.80
2018-12-20T20:30:41.695Z,8.80
2018-12-20T20:33:16.073Z,8.90
2018-12-20T20:35:44.539Z,9.00
2018-12-20T20:38:12.947Z,9.00
2018-12-20T20:40:41.329Z,9.20
2018-12-20T20:43:09.907Z,9.30
2018-12-20T20:45:39.311Z,9.30
2018-12-20T20:48:11.411Z,9.20
2018-12-20T20:50:39.775Z,9.20
2018-12-20T20:53:08.142Z,9.20
2018-12-20T20:55:36.559Z,9.20
2018-12-20T20:58:05.818Z,9.20
2018-12-20T21:00:34.202Z,9.20
2018-12-20T21:03:08.498Z,9.10
2018-12-20T21:05:36.791Z,9.00
2018-12-20T21:08:05.057Z,8.90
2018-12-20T21:10:33.330Z,9.00
2018-12-20T21:13:01.612Z,9.00
2018-12-20T21:15:30.002Z,9.00
2018-12-20T21:17:58.286Z,8.80
2018-12-20T21:20:30.712Z,8.90
2018-12-20T21:22:59.234Z,8.80
2018-12-20T21:25:27.525Z,8.70
2018-12-20T21:27:56.014Z,8.80
2018-12-20T21:30:24.305Z,8.80
2018-12-20T21:32:52.653Z,8.70
2018-12-20T21:35:21.095Z,8.80
2018-12-20T21:37:49.449Z,8.90
2018-12-20T21:40:19.897Z,8.90
2018-12-20T21:42:48.508Z,8.70
2018-12-20T21:45:17.093Z,8.50
2018-12-20T21:47:45.396Z,8.50
2018-12-20T21:50:13.954Z,8.50
2018-12-20T21:52:42.475Z,8.50
2018-12-20T21:55:10.735Z,8.50
2018-12-20T21:57:39.205Z,8.60
2018-12-20T22:00:09.464Z,8.70
2018-12-20T22:02:37.811Z,8.70
2018-12-20T22:05:08.035Z,8.80
2018-12-20T22:07:36.519Z,8.80
2018-12-20T22:10:05.832Z,8.80
2018-12-20T22:12:34.090Z,8.90
2018-12-20T22:15:02.661Z,8.90
2018-12-20T22:17:30.910Z,8.90
2018-12-20T22:19:59.167Z,8.90
2018-12-20T22:22:27.444Z,8.80
2018-12-20T22:24:55.699Z,8.80
2018-12-20T22:27:23.953Z,8.70
2018-12-20T22:29:52.730Z,8.70
2018-12-20T22:32:20.991Z,8.90
2018-12-20T22:34:49.256Z,9.00
2018-12-20T22:37:17.854Z,8.90
2018-12-20T22:39:47.228Z,8.80
2018-12-20T22:42:15.879Z,8.80
2018-12-20T22:44:44.147Z,8.70
2018-12-20T22:47:12.415Z,8.60
2018-12-20T22:49:40.877Z,8.60
2018-12-20T22:52:09.612Z,8.60
2018-12-20T22:54:37.862Z,8.80
2018-12-20T22:57:06.455Z,8.70
2018-12-20T22:59:34.743Z,8.60
2018-12-20T23:02:03.357Z,8.70
2018-12-20T23:04:32.497Z,8.80
2018-12-20T23:07:00.779Z,8.70
2018-12-20T23:09:29.035Z,8.80
2018-12-20T23:11:57.290Z,8.80
2018-12-20T23:14:25.816Z,8.80
2018-12-20T23:16:54.111Z,8.70
2018-12-20T23:19:22.533Z,8.70
2018-12-20T23:21:50.818Z,8.90
2018-12-20T23:24:19.240Z,9.00
2018-12-20T23:26:47.523Z,9.00
2018-12-20T23:29:15.806Z,9.00
2018-12-20T23:31:44.058Z,9.00
2018-12-20T23:34:12.318Z,9.10
2018-12-20T23:36:40.874Z,9.10
2018-12-20T23:39:09.546Z,9.10
2018-12-20T23:41:37.810Z,9.00
2018-12-20T23:44:06.103Z,9.10
2018-12-20T23:46:34.380Z,9.00
2018-12-20T23:49:02.642Z,9.00
2018-12-20T23:51:31.126Z,8.90
2018-12-20T23:53:59.382Z,8.90
2018-12-20T23:56:27.654Z,8.90
2018-12-20T23:58:56.331Z,8.90
